ADDS METAR Data INFO
IDs: Format: Raw Decoded Include TAF

Data at: 0022 UTC 23 Oct 2017

PAVC 222356Z AUTO 25006KT 10SM BKN041 03/M05 A2956 RMK AO2 SLP016 T00331050 10033 21028 58004
PAVC 222256Z AUTO 27008KT 10SM FEW040 03/M06 A2957 RMK AO2 SLP018 T00281056
PAVC 222156Z AUTO 28006KT 10SM CLR 02/M04 A2958 RMK AO2 SLP021 T00221039 FZRANO
PAVC 222056Z AUTO 25005KT 10SM CLR 02/M04 A2957 RMK AO2 SLP020 T00171044 53011 FZRANO
PAVC 221956Z AUTO 22006KT 10SM CLR 02/M04 A2956 RMK AO2 SLP016 T00171039 FZRANO
PAVC 221856Z AUTO 23007KT 10SM BKN038 01/M03 A2955 RMK AO2 SLP012 T00061028 FZRANO
PAVC 221756Z AUTO 28005KT 10SM CLR M03/M04 A2954 RMK AO2 SLP009 60000 T10331044 11006 21039 51008 FZRANO
PAVC 221656Z AUTO 25005KT 10SM CLR M03/M05 A2954 RMK AO2 SLP008 T10331050 FZRANO
PAVC 221556Z AUTO 27007KT 10SM CLR M03/M04 A2952 RMK AO2 SLP002 T10281044 FZRANO
PAVC 221456Z AUTO 25007KT 10SM CLR M03/M04 A2952 RMK AO2 SLP000 60000 T10281044 53003 FZRANO
PAVC 221356Z AUTO 26008KT 10SM FEW040 M03/M04 A2952 RMK AO2 SLP001 T10331044 FZRANO
PAVC 221256Z AUTO 25008KT 10SM FEW013 M03/M04 A2950 RMK AO2 SNE47 SLP996 P0000 T10281044 FZRANO
PAVC 221156Z AUTO 25013G19KT 9SM -SN FEW021 BKN090 OVC110 M01/M03 A2951 RMK AO2 SNB10 SLP997 P0000 60000 70006 T10111033 10006 21022 50003 FZRANO
PAVC 221149Z AUTO 25008KT 9SM -SN SCT017 SCT031 BKN090 M01/M03 A2951 RMK AO2 SNB10 P0000 FZRANO
PAVC 221130Z AUTO 24010KT 8SM -SN FEW006 SCT013 BKN018 M02/M03 A2951 RMK AO2 SNB10 P0000 FZRANO
PAVC 221122Z AUTO 23009KT 2SM -SN BR FEW008 BKN015 BKN030 M01/M03 A2951 RMK AO2 SNB10 P0000 FZRANO
PAVC 221116Z AUTO 26010G16KT 1 3/4SM -SN BR FEW006 SCT015 BKN033 M02/M03 A2951 RMK AO2 SNB10 P0000 FZRANO
PAVC 221056Z AUTO 23005KT 10SM FEW033 M02/M04 A2951 RMK AO2 SNB0957E41 SLP997 P0000 T10221039 FZRANO
PAVC 221041Z AUTO 22008KT 9SM FEW013 SCT022 M02/M03 A2950 RMK AO2 SNB0957E41 P0000 FZRANO
PAVC 221032Z AUTO 21009KT 6SM -SN BR SCT013 BKN020 BKN026 M01/M03 A2951 RMK AO2 SNB0957 P0000 FZRANO
PAVC 221013Z AUTO 22006KT 2 1/2SM -SN SCT013 BKN024 BKN050 M01/M04 A2951 RMK AO2 SNB0957 P0000 FZRANO
PAVC 220956Z AUTO 27006KT 10SM FEW040 M01/M04 A2950 RMK AO2 SNE0857 SLP996 T10111044 FZRANO
PAVC 220856Z AUTO 26010KT 9SM -SN SCT028 SCT050 BKN120 M01/M04 A2950 RMK AO2 UPE0757B24E27SNB27 SLP995 P0000 60000 T10061044 400331011 51006 FZRANO
PAVC 220804Z AUTO 23007KT 10SM SCT019 SCT075 BKN120 M01/M02 A2950 RMK AO2 UPE0757 FZRANO
PAVC 220756Z AUTO 24009KT 10SM UP BKN019 BKN070 BKN120 M01/M02 A2950 RMK AO2 UPB50SNE50 SLP994 P0000 T10111022 FZRANO
PAVC 220731Z AUTO 25011KT 8SM -SN SCT009 BKN019 OVC034 M01/M02 A2949 RMK AO2 P0000 FZRANO
PAVC 220722Z AUTO 25011KT 3SM -SN BR SCT009 BKN012 OVC019 M01/M02 A2949 RMK AO2 P0000 FZRANO
PAVC 220719Z AUTO 24010G19KT 2SM -SN BR BKN009 OVC019 M01/M02 A2950 RMK AO2 CIG 006V013 P0000 FZRANO
PAVC 220709Z AUTO 24016G21KT 1 1/4SM -SN BR BKN009 BKN016 OVC022 M01/M02 A2950 RMK AO2 CIG 006V013 P0000 FZRANO
PAVC 220656Z AUTO 26015G20KT 2SM -SN BR SCT009 BKN019 OVC045 00/M02 A2949 RMK AO2 VIS 1 1/4V4 UPB19E24SNE00B24 SLP992 P0000 T00001022 FZRANO
PAVC 220649Z AUTO 28010G21KT 1 3/4SM -SN BR SCT013 BKN029 OVC050 00/M02 A2949 RMK AO2 UPB19E24SNE00B24 P0000 FZRANO
PAVC 220646Z AUTO 27016G21KT 2 1/2SM -SN FEW009 BKN033 OVC047 00/M03 A2949 RMK AO2 UPB19E24SNE00B24 P0000 FZRANO
PAVC 220556Z AUTO 21006KT 9SM -SN SCT034 BKN043 BKN070 00/M04 A2948 RMK AO2 UPB40E42SNB42 SLP988 P0000 60001 T00001039 10033 20000 53011 FZRANO
PAVC 220456Z AUTO 25007KT 10SM FEW035 SCT055 00/M04 A2947 RMK AO2 SLP984 T00001044 FZRANO
PAVC 220356Z AUTO 25013G17KT 10SM BKN035 BKN041 OVC048 02/M04 A2945 RMK AO2 SLP979 T00171039 FZRANO
PAVC 220256Z AUTO 26008KT 10SM BKN047 02/M07 A2945 RMK AO2 RAE07 SLP977 P0000 60001 T00171067 51004 FZRANO
PAVC 220156Z AUTO 24010G18KT 10SM -RA SCT042 BKN055 OVC120 02/M03 A2944 RMK AO2 RAB38SNE05 SLP976 P0000 T00171028 FZRANO
PAVC 220056Z AUTO 29007KT 3SM -SN FEW013 SCT029 BKN045 01/M04 A2944 RMK AO2 RAB40E52SNB52 SLP976 P0001 T00111044 FZRANO
PAVC 212356Z AUTO 28018G26KT 10SM BKN044 OVC055 03/M06 A2944 RMK AO2 PK WND 26026/2347 UPE2257B41E49RAB22E41 SLP973 P0000 60000 T00281056 10033 20011 50001
PAVC 212256Z AUTO 27014G21KT 10SM UP SCT048 BKN060 02/M07 A2944 RMK AO2 RAB41E51UPB51 SLP974 P0000 T00221067 FZRANO
PAVC 212156Z AUTO 28017G24KT 10SM FEW035 SCT044 SCT060 02/M06 A2944 RMK AO2 RAB16E25UPB25E34 SLP973 P0000 T00221061 FZRANO
PAVC 212056Z AUTO 28018G24KT 10SM SCT042 02/M06 A2943 RMK AO2 PK WND 28031/2027 SLP971 60000 T00221056 52013 FZRANO
PAVC 211956Z AUTO 26021G31KT 10SM BKN046 02/M07 A2941 RMK AO2 PK WND 27031/1956 UPB05E09SNE05 SLP965 P0000 T00221067 FZRANO
PAVC 211856Z AUTO 29015G27KT 7SM -SN FEW023 OVC038 02/M05 A2941 RMK AO2 PK WND 28027/1853 RAB04E25SNB25 SLP965 P0000 T00171050 FZRANO
PAVC 211756Z AUTO 27009G14KT 10SM BKN039 BKN049 OVC070 01/M04 A2939 RMK AO2 PK WND 29028/1702 SLP958 60005 T00111044 10011 20000 51014 FZRANO
PAVC 211656Z AUTO 30018G26KT 10SM FEW019 SCT025 SCT039 00/M04 A2938 RMK AO2 PK WND 30032/1602 SNE41 SLP956 P0000 T00001044 FZRANO
PAVC 211556Z AUTO 28018G31KT 5SM -SN BKN018 BKN026 OVC036 01/M02 A2935 RMK AO2 PK WND 28037/1540 UPB50E52SNE50B52 SLP945 P0001 T00061022 FZRANO
PAVC 211528Z AUTO 30016G24KT 4SM -SN BR SCT009 OVC019 00/M02 A2935 RMK AO2 P0000 FZRANO
PAVC 211520Z AUTO 29014KT 2SM -SN BR BKN009 BKN015 OVC024 00/M01 A2934 RMK AO2 CIG 006V013 P0000 FZRANO
PAVC 211513Z AUTO 30013G22KT 1SM -SN BR BKN009 BKN015 OVC029 00/M01 A2934 RMK AO2 CIG 006V013 P0000 FZRANO
PAVC 211506Z AUTO 27014G18KT 1SM -SN BR SCT009 BKN012 OVC038 00/M02 A2934 RMK AO2 P0000 FZRANO
PAVC 211501Z AUTO 27015KT 2SM -SN BR FEW008 BKN025 OVC038 00/M02 A2934 RMK AO2 VIS 1V5 P0000 FZRANO
PAVC 211456Z AUTO 27011KT 6SM -SN BR FEW013 BKN024 OVC036 00/M02 A2934 RMK AO2 SLP939 P0002 60004 T00001022 51007 FZRANO
PAVC 211439Z AUTO 28011G20KT 5SM -SN BR FEW009 SCT015 OVC024 00/M02 A2933 RMK AO2 P0002 FZRANO
PAVC 211429Z AUTO 30012G15KT 2SM -SN BR FEW007 BKN025 OVC035 00/M01 A2933 RMK AO2 P0002 FZRANO
PAVC 211356Z AUTO 23004KT 3SM -SN BR SCT010 BKN021 OVC050 00/M01 A2933 RMK AO2 UPB31E33SNE31B33 SLP938 P0001 T00001011 FZRANO
PAVC 211353Z AUTO 22004KT 2SM -SN BR BKN010 BKN021 OVC055 00/M01 A2933 RMK AO2 UPB31E33SNE31B33 CIG 006V016 P0001 FZRANO
PAVC 211345Z AUTO 25005G14KT 1SM -SN BR SCT008 BKN014 OVC065 01/M01 A2933 RMK AO2 UPB31E33SNE31B33 P0001 FZRANO
PAVC 211342Z AUTO 24007G17KT 1 1/4SM -SN BR BKN008 BKN021 OVC065 01/M01 A2934 RMK AO2 VIS 1/2V3 UPB31E33SNE31B33 CIG 003V015 P0001 FZRANO
PAVC 211339Z AUTO 25010G17KT 2SM -SN BR SCT008 BKN021 OVC065 01/M01 A2933 RMK AO2 VIS 1V5 UPB31E33SNE31B33 P0001 FZRANO
PAVC 211331Z AUTO 26011KT 9SM UP SCT006 BKN035 OVC065 00/M01 A2933 RMK AO2 UPB31SNE31 P0001 FZRANO
PAVC 211322Z AUTO 28008KT 4SM -SN BR BKN006 BKN023 OVC030 00/M01 A2932 RMK AO2 CIG 003V014 P0001 FZRANO
PAVC 211319Z AUTO 24006KT 1 1/4SM -SN BR BKN006 BKN015 OVC026 00/M01 A2933 RMK AO2 CIG 003V009 P0001 FZRANO
PAVC 211310Z AUTO 26009KT 3/4SM -SN BR BKN006 OVC012 00/M01 A2934 RMK AO2 P0001 FZRANO
PAVC 211303Z AUTO 25011G21KT 1 1/4SM -SN BR SCT006 OVC012 01/M01 A2933 RMK AO2 P0000 FZRANO
PAVC 211256Z AUTO 27016G21KT 1 1/2SM -SN BR SCT010 BKN015 OVC022 01/M01 A2933 RMK AO2 VIS 3/4V3 UPB21E22RAB22E26SNE21B26 SLP936 P0001 T00061011 FZRANO
PAVC 211241Z AUTO 26009G17KT 2SM -SN BR BKN011 BKN023 OVC034 01/M01 A2932 RMK AO2 VIS 1 1/4V3 UPB21E22RAB22E26SNE21B26 P0001 FZRANO
PAVC 211234Z AUTO 28014KT 1 3/4SM -SN BR SCT011 BKN022 OVC041 01/M01 A2932 RMK AO2 UPB21E22RAB22E26SNE21B26 P0001 FZRANO